Saint-Honore-De-Temiscouata, Canada
Current Conditions -  °F | °C
As of 8:53 PM on Saturday 22 Nov 2014 (Local Time) from KFVE Reporting Station
Light Snow Light Snow  
Wind Chill: 15°   Ceiling: 7000
Heat Index: 26°   Visibility: 6mi
Dew Point: 23°   Wind: 13mph
Humidity: 88%   Direction: 250°WSW
Pressure: 29.73"   Gusts: NA
Location:  47.72°N, 69.13°W
Report Text: KFVE 230153Z AUTO 25011KT 6SM -SN BR OVC070 M03/M05 A2973 RMK AO2 SNE04B32 SLP082 P0000 T10331050
Loading
Personal Weather Stations






























Interactive Weather Map New forecast layout! Learn more

10-Day Weather Forecast

Advertisements
Track Severe Weather on mobile